Time;durP1;ratioP1;P1;durP2;ratioP2;P2;SDS_P1;SDS_P2;PMS_P1;PMS_P2;Temp;Humidity;BMP_temperature;BMP_pressure;BME280_temperature;BME280_humidity;BME280_pressure;Samples;Min_cycle;Max_cycle;Signal;HPM_P1;HPM_P2
2021/08/11 00:02:50;;;;;;;6.10;4.29;;;;;;;21.50;70.21;100650.45;;;;-56
2021/08/11 00:05:51;;;;;;;6.66;4.26;;;;;;;21.49;70.26;100645.08;;;;-57
2021/08/11 00:08:51;;;;;;;5.17;4.21;;;;;;;21.48;70.22;100647.45;;;;-57
2021/08/11 00:11:50;;;;;;;6.90;4.39;;;;;;;21.48;70.25;100651.69;;;;-55
2021/08/11 00:14:50;;;;;;;6.19;4.21;;;;;;;21.48;70.28;100650.30;;;;-56
2021/08/11 00:17:51;;;;;;;5.69;4.19;;;;;;;21.47;70.30;100648.91;;;;-56
2021/08/11 00:20:51;;;;;;;5.57;4.08;;;;;;;21.48;70.31;100655.66;;;;-57
2021/08/11 00:23:51;;;;;;;5.60;4.28;;;;;;;21.47;70.27;100663.42;;;;-56
2021/08/11 00:26:51;;;;;;;4.54;3.95;;;;;;;21.47;70.27;100660.89;;;;-56
2021/08/11 00:29:50;;;;;;;4.93;4.14;;;;;;;21.46;70.30;100662.62;;;;-56
2021/08/11 00:32:50;;;;;;;4.97;4.07;;;;;;;21.46;70.29;100663.11;;;;-55
2021/08/11 00:35:51;;;;;;;5.91;4.22;;;;;;;21.46;70.35;100664.09;;;;-56
2021/08/11 00:38:50;;;;;;;5.25;4.01;;;;;;;21.45;70.35;100662.59;;;;-56
2021/08/11 00:41:50;;;;;;;5.28;3.89;;;;;;;21.45;70.35;100662.59;;;;-57
2021/08/11 00:44:50;;;;;;;5.15;3.97;;;;;;;21.44;70.30;100664.08;;;;-57
2021/08/11 00:47:50;;;;;;;5.19;4.02;;;;;;;21.44;70.30;100662.28;;;;-55
2021/08/11 00:50:50;;;;;;;5.12;4.00;;;;;;;21.44;70.32;100657.14;;;;-57
2021/08/11 00:53:51;;;;;;;4.67;3.95;;;;;;;21.45;70.30;100652.41;;;;-57
2021/08/11 00:56:50;;;;;;;4.77;3.91;;;;;;;21.44;70.37;100656.49;;;;-55
2021/08/11 00:59:51;;;;;;;5.63;3.98;;;;;;;21.44;70.29;100647.86;;;;-57
2021/08/11 01:02:51;;;;;;;4.31;3.76;;;;;;;21.44;70.37;100646.95;;;;-56
2021/08/11 01:05:51;;;;;;;4.25;3.59;;;;;;;21.43;70.27;100636.42;;;;-56
2021/08/11 01:08:50;;;;;;;4.70;3.84;;;;;;;21.43;70.40;100633.97;;;;-57
2021/08/11 01:11:53;;;;;;;5.29;3.78;;;;;;;21.42;70.37;100631.59;;;;-57
2021/08/11 01:14:50;;;;;;;4.45;3.72;;;;;;;21.41;70.34;100631.90;;;;-57
2021/08/11 01:17:50;;;;;;;4.71;3.87;;;;;;;21.42;70.34;100637.88;;;;-56
2021/08/11 01:20:51;;;;;;;5.04;4.01;;;;;;;21.41;70.30;100646.73;;;;-55
2021/08/11 01:23:50;;;;;;;6.19;3.79;;;;;;;21.40;70.38;100650.09;;;;-56
2021/08/11 01:26:50;;;;;;;4.41;3.93;;;;;;;21.41;70.36;100643.97;;;;-57
2021/08/11 01:29:50;;;;;;;4.54;3.69;;;;;;;21.40;70.41;100641.61;;;;-56
2021/08/11 01:32:50;;;;;;;5.94;4.07;;;;;;;21.41;70.35;100639.57;;;;-57
2021/08/11 01:35:50;;;;;;;4.77;3.87;;;;;;;21.40;70.37;100643.49;;;;-57
2021/08/11 01:38:51;;;;;;;4.21;3.70;;;;;;;21.40;70.43;100648.63;;;;-56
2021/08/11 01:41:50;;;;;;;4.06;3.49;;;;;;;21.40;70.35;100646.11;;;;-62
2021/08/11 01:44:50;;;;;;;4.93;3.71;;;;;;;21.39;70.36;100642.58;;;;-62
2021/08/11 01:47:50;;;;;;;4.59;3.65;;;;;;;21.39;70.33;100640.32;;;;-62
2021/08/11 01:50:50;;;;;;;4.33;3.59;;;;;;;21.39;70.34;100644.40;;;;-63
2021/08/11 01:53:51;;;;;;;4.79;3.54;;;;;;;21.39;70.39;100649.75;;;;-63
2021/08/11 01:56:50;;;;;;;4.79;3.72;;;;;;;21.39;70.41;100648.61;;;;-63
2021/08/11 01:59:50;;;;;;;4.31;3.51;;;;;;;21.38;70.35;100647.89;;;;-64
2021/08/11 02:02:50;;;;;;;4.13;3.47;;;;;;;21.38;70.36;100644.14;;;;-62
2021/08/11 02:05:50;;;;;;;4.26;3.41;;;;;;;21.38;70.42;100649.36;;;;-52
2021/08/11 02:08:51;;;;;;;3.96;3.56;;;;;;;21.38;70.41;100653.77;;;;-52
2021/08/11 02:11:50;;;;;;;4.35;3.80;;;;;;;21.37;70.36;100655.21;;;;-51
2021/08/11 02:14:50;;;;;;;4.65;3.85;;;;;;;21.37;70.37;100661.84;;;;-51
2021/08/11 02:17:51;;;;;;;4.35;3.70;;;;;;;21.38;70.40;100664.12;;;;-51
2021/08/11 02:20:51;;;;;;;3.82;3.41;;;;;;;21.37;70.42;100669.31;;;;-52
2021/08/11 02:23:50;;;;;;;4.40;3.71;;;;;;;21.37;70.46;100669.08;;;;-51
2021/08/11 02:26:50;;;;;;;4.19;3.51;;;;;;;21.37;70.45;100663.20;;;;-52
2021/08/11 02:29:50;;;;;;;4.36;3.61;;;;;;;21.36;70.45;100660.28;;;;-51
2021/08/11 02:32:50;;;;;;;4.23;3.60;;;;;;;21.36;70.42;100661.98;;;;-51
2021/08/11 02:35:51;;;;;;;3.88;3.47;;;;;;;21.36;70.35;100657.67;;;;-51
2021/08/11 02:38:50;;;;;;;4.92;3.37;;;;;;;21.36;70.38;100653.92;;;;-52
2021/08/11 02:41:50;;;;;;;4.40;3.48;;;;;;;21.35;70.41;100651.30;;;;-53
2021/08/11 02:44:50;;;;;;;4.52;3.47;;;;;;;21.35;70.38;100649.99;;;;-51
2021/08/11 02:47:51;;;;;;;3.97;3.46;;;;;;;21.36;70.43;100649.69;;;;-52
2021/08/11 02:50:50;;;;;;;3.97;3.35;;;;;;;21.34;70.37;100646.98;;;;-51
2021/08/11 02:53:50;;;;;;;3.98;3.38;;;;;;;21.35;70.40;100645.67;;;;-51
2021/08/11 02:56:50;;;;;;;3.97;3.40;;;;;;;21.34;70.43;100643.32;;;;-51
2021/08/11 02:59:50;;;;;;;4.77;3.36;;;;;;;21.34;70.42;100646.25;;;;-52
2021/08/11 03:02:51;;;;;;;3.74;3.38;;;;;;;21.34;70.45;100648.05;;;;-51
2021/08/11 03:05:50;;;;;;;3.93;3.40;;;;;;;21.34;70.47;100656.20;;;;-52
2021/08/11 03:08:50;;;;;;;4.49;3.58;;;;;;;21.34;70.40;100655.30;;;;-51
2021/08/11 03:11:51;;;;;;;3.75;3.27;;;;;;;21.34;70.47;100653.77;;;;-52
2021/08/11 03:14:50;;;;;;;3.90;3.38;;;;;;;21.34;70.44;100658.33;;;;-51
2021/08/11 03:17:50;;;;;;;4.17;3.43;;;;;;;21.33;70.39;100660.75;;;;-52
2021/08/11 03:20:51;;;;;;;3.95;3.55;;;;;;;21.33;70.43;100667.87;;;;-51
2021/08/11 03:23:50;;;;;;;4.26;3.61;;;;;;;21.33;70.38;100674.28;;;;-51
2021/08/11 03:26:50;;;;;;;3.69;3.29;;;;;;;21.33;70.38;100671.19;;;;-51
2021/08/11 03:29:50;;;;;;;4.11;3.39;;;;;;;21.33;70.44;100673.25;;;;-51
2021/08/11 03:32:50;;;;;;;3.52;3.20;;;;;;;21.33;70.39;100668.58;;;;-53
2021/08/11 03:35:50;;;;;;;3.82;3.42;;;;;;;21.32;70.39;100660.76;;;;-51
2021/08/11 03:38:50;;;;;;;3.51;3.00;;;;;;;21.32;70.45;100661.48;;;;-52
2021/08/11 03:41:50;;;;;;;4.28;3.41;;;;;;;21.32;70.42;100662.80;;;;-51
2021/08/11 03:44:50;;;;;;;3.83;3.19;;;;;;;21.31;70.43;100661.34;;;;-51
2021/08/11 03:47:50;;;;;;;3.77;3.34;;;;;;;21.31;70.44;100663.59;;;;-51
2021/08/11 03:50:51;;;;;;;3.86;3.42;;;;;;;21.32;70.36;100670.95;;;;-51
2021/08/11 03:53:50;;;;;;;3.65;3.29;;;;;;;21.31;70.45;100671.78;;;;-52
2021/08/11 03:56:50;;;;;;;4.11;3.27;;;;;;;21.31;70.43;100666.94;;;;-51
2021/08/11 03:59:50;;;;;;;4.09;3.31;;;;;;;21.31;70.48;100671.91;;;;-52
2021/08/11 04:02:50;;;;;;;3.89;3.01;;;;;;;21.30;70.42;100670.20;;;;-52
2021/08/11 04:05:50;;;;;;;3.66;3.21;;;;;;;21.30;70.45;100676.16;;;;-52
2021/08/11 04:08:51;;;;;;;3.96;3.39;;;;;;;21.30;70.38;100678.77;;;;-51
2021/08/11 04:11:50;;;;;;;3.65;3.29;;;;;;;21.30;70.39;100677.37;;;;-52
2021/08/11 04:14:50;;;;;;;3.41;3.11;;;;;;;21.30;70.38;100674.77;;;;-51
2021/08/11 04:17:50;;;;;;;3.41;3.00;;;;;;;21.30;70.39;100675.59;;;;-52
2021/08/11 04:20:50;;;;;;;4.33;3.20;;;;;;;21.29;70.38;100676.41;;;;-52
2021/08/11 04:23:50;;;;;;;3.74;3.21;;;;;;;21.30;70.39;100681.22;;;;-51
2021/08/11 04:26:50;;;;;;;3.89;3.12;;;;;;;21.30;70.47;100684.64;;;;-52
2021/08/11 04:29:50;;;;;;;3.69;3.29;;;;;;;21.29;70.37;100682.94;;;;-51
2021/08/11 04:32:50;;;;;;;3.53;3.22;;;;;;;21.28;70.42;100682.52;;;;-51
2021/08/11 04:35:51;;;;;;;4.12;3.31;;;;;;;21.29;70.46;100688.72;;;;-51
2021/08/11 04:38:50;;;;;;;3.82;3.23;;;;;;;21.29;70.47;100689.55;;;;-51
2021/08/11 04:41:50;;;;;;;3.71;3.32;;;;;;;21.29;70.44;100692.29;;;;-51
2021/08/11 04:44:50;;;;;;;3.47;3.06;;;;;;;21.28;70.42;100691.97;;;;-52
2021/08/11 04:47:50;;;;;;;4.01;3.15;;;;;;;21.28;70.39;100695.14;;;;-51
2021/08/11 04:50:50;;;;;;;3.65;3.17;;;;;;;21.28;70.42;100696.22;;;;-51
2021/08/11 04:53:51;;;;;;;3.77;3.09;;;;;;;21.28;70.40;100700.45;;;;-51
2021/08/11 04:56:50;;;;;;;3.53;3.13;;;;;;;21.27;70.47;100707.55;;;;-51
2021/08/11 04:59:50;;;;;;;3.78;3.05;;;;;;;21.28;70.47;100714.30;;;;-52
2021/08/11 05:02:50;;;;;;;3.87;3.34;;;;;;;21.27;70.48;100709.89;;;;-51
2021/08/11 05:05:50;;;;;;;3.77;3.12;;;;;;;21.27;70.39;100711.78;;;;-52
2021/08/11 05:08:51;;;;;;;3.13;2.81;;;;;;;21.27;70.41;100708.99;;;;-52
2021/08/11 05:11:50;;;;;;;3.47;2.96;;;;;;;21.27;70.47;100708.34;;;;-52
2021/08/11 05:14:50;;;;;;;3.55;3.01;;;;;;;21.27;70.43;100708.27;;;;-51
2021/08/11 05:17:50;;;;;;;3.51;3.13;;;;;;;21.26;70.44;100715.52;;;;-51
2021/08/11 05:20:51;;;;;;;3.11;2.81;;;;;;;21.26;70.44;100712.58;;;;-51
2021/08/11 05:23:50;;;;;;;3.34;2.98;;;;;;;21.27;70.42;100719.19;;;;-51
2021/08/11 05:26:50;;;;;;;3.31;3.00;;;;;;;21.27;70.46;100724.16;;;;-52
2021/08/11 05:29:50;;;;;;;4.53;3.27;;;;;;;21.26;70.40;100728.56;;;;-52
2021/08/11 05:32:50;;;;;;;3.25;2.95;;;;;;;21.26;70.48;100724.81;;;;-51
2021/08/11 05:35:50;;;;;;;3.55;3.00;;;;;;;21.26;70.43;100720.66;;;;-52
2021/08/11 05:38:50;;;;;;;3.17;2.85;;;;;;;21.25;70.41;100716.43;;;;-52
2021/08/11 05:41:50;;;;;;;3.34;2.97;;;;;;;21.25;70.41;100718.30;;;;-52
2021/08/11 05:44:51;;;;;;;3.30;2.97;;;;;;;21.26;70.43;100726.61;;;;-52
2021/08/11 05:47:50;;;;;;;3.11;2.81;;;;;;;21.25;70.45;100731.51;;;;-51
2021/08/11 05:50:50;;;;;;;3.45;3.00;;;;;;;21.26;70.38;100735.58;;;;-52
2021/08/11 05:53:50;;;;;;;3.14;2.84;;;;;;;21.26;70.42;100732.41;;;;-52
2021/08/11 05:56:50;;;;;;;3.17;2.76;;;;;;;21.26;70.38;100731.50;;;;-52
2021/08/11 05:59:50;;;;;;;3.23;2.93;;;;;;;21.26;70.42;100734.11;;;;-55
2021/08/11 06:02:50;;;;;;;3.35;2.91;;;;;;;21.25;70.38;100730.04;;;;-55
2021/08/11 06:05:50;;;;;;;3.25;2.94;;;;;;;21.25;70.42;100731.02;;;;-55
2021/08/11 06:08:50;;;;;;;3.12;2.82;;;;;;;21.25;70.36;100729.39;;;;-55
2021/08/11 06:11:50;;;;;;;3.08;2.75;;;;;;;21.25;70.36;100728.73;;;;-63
2021/08/11 06:14:50;;;;;;;2.97;2.67;;;;;;;21.25;70.39;100729.88;;;;-63
2021/08/11 06:17:50;;;;;;;3.51;2.97;;;;;;;21.25;70.38;100728.50;;;;-63
2021/08/11 06:20:52;;;;;;;3.10;2.80;;;;;;;21.25;70.36;100736.23;;;;-53
2021/08/11 06:23:51;;;;;;;2.93;2.65;;;;;;;21.25;70.41;100731.59;;;;-54
2021/08/11 06:26:51;;;;;;;3.46;3.15;;;;;;;21.25;70.39;100729.77;;;;-53
2021/08/11 06:29:50;;;;;;;3.05;2.75;;;;;;;21.25;70.43;100732.63;;;;-53
2021/08/11 06:32:50;;;;;;;3.21;2.86;;;;;;;21.25;70.44;100732.89;;;;-53
2021/08/11 06:35:50;;;;;;;3.67;2.75;;;;;;;21.25;70.44;100728.22;;;;-53
2021/08/11 06:38:50;;;;;;;3.30;2.69;;;;;;;21.24;70.38;100725.30;;;;-53
2021/08/11 06:41:50;;;;;;;3.19;2.89;;;;;;;21.24;70.42;100727.08;;;;-53
2021/08/11 06:44:50;;;;;;;3.15;2.85;;;;;;;21.25;70.37;100718.27;;;;-54
2021/08/11 06:47:50;;;;;;;3.09;2.77;;;;;;;21.24;70.38;100712.98;;;;-53
2021/08/11 06:50:50;;;;;;;3.20;2.81;;;;;;;21.25;70.42;100712.81;;;;-54
2021/08/11 06:53:50;;;;;;;3.02;2.77;;;;;;;21.24;70.33;100715.11;;;;-53
2021/08/11 06:56:51;;;;;;;3.38;2.85;;;;;;;21.24;70.38;100722.84;;;;-54
2021/08/11 06:59:50;;;;;;;3.19;2.80;;;;;;;21.25;70.43;100727.16;;;;-53
2021/08/11 07:02:50;;;;;;;4.37;2.94;;;;;;;21.26;70.75;100724.49;;;;-51
2021/08/11 07:05:50;;;;;;;7.87;3.20;;;;;;;21.27;70.81;100725.13;;;;-53
2021/08/11 07:08:50;;;;;;;5.03;2.79;;;;;;;21.29;70.90;100723.20;;;;-51
2021/08/11 07:11:50;;;;;;;4.51;2.90;;;;;;;21.31;70.78;100720.91;;;;-53
2021/08/11 07:14:52;;;;;;;6.41;3.24;;;;;;;21.33;71.10;100722.30;;;;-57
2021/08/11 07:17:51;;;;;;;4.73;2.90;;;;;;;21.32;70.83;100722.80;;;;-56
2021/08/11 07:20:50;;;;;;;4.28;2.97;;;;;;;21.32;70.96;100726.95;;;;-59
2021/08/11 07:23:50;;;;;;;7.15;3.21;;;;;;;21.32;70.93;100722.63;;;;-52
2021/08/11 07:26:50;;;;;;;5.65;2.98;;;;;;;21.32;70.96;100722.72;;;;-52
2021/08/11 07:29:50;;;;;;;7.20;3.05;;;;;;;21.32;70.97;100726.80;;;;-52
2021/08/11 07:32:50;;;;;;;4.92;3.15;;;;;;;21.32;70.89;100723.77;;;;-52
2021/08/11 07:35:50;;;;;;;7.15;3.16;;;;;;;21.31;70.88;100728.02;;;;-58
2021/08/11 07:38:50;;;;;;;6.21;2.85;;;;;;;21.31;70.93;100734.38;;;;-57
2021/08/11 07:41:50;;;;;;;4.09;2.82;;;;;;;21.31;70.90;100726.94;;;;-58
2021/08/11 07:44:50;;;;;;;4.83;3.05;;;;;;;21.30;70.79;100730.20;;;;-58
2021/08/11 07:47:52;;;;;;;4.47;2.70;;;;;;;21.30;70.84;100730.05;;;;-58
2021/08/11 07:50:50;;;;;;;4.42;2.92;;;;;;;21.30;70.83;100731.52;;;;-57
2021/08/11 07:53:50;;;;;;;4.91;3.11;;;;;;;21.30;70.69;100731.18;;;;-57
2021/08/11 07:56:50;;;;;;;4.98;3.07;;;;;;;21.30;70.76;100733.95;;;;-58
2021/08/11 07:59:50;;;;;;;5.57;2.89;;;;;;;21.30;70.74;100736.32;;;;-58
2021/08/11 08:02:50;;;;;;;3.43;2.81;;;;;;;21.30;70.68;100734.28;;;;-57
2021/08/11 08:05:50;;;;;;;5.48;3.06;;;;;;;21.30;70.64;100729.31;;;;-58
2021/08/11 08:08:50;;;;;;;6.17;2.95;;;;;;;21.29;70.67;100726.30;;;;-58
2021/08/11 08:11:50;;;;;;;3.55;2.76;;;;;;;21.29;70.64;100722.48;;;;-58
2021/08/11 08:14:50;;;;;;;4.25;2.79;;;;;;;21.30;70.62;100724.34;;;;-57
2021/08/11 08:17:50;;;;;;;3.26;2.70;;;;;;;21.30;70.69;100726.88;;;;-57
2021/08/11 08:20:50;;;;;;;4.07;2.89;;;;;;;21.29;70.65;100722.36;;;;-58
2021/08/11 08:23:50;;;;;;;4.43;2.76;;;;;;;21.29;70.59;100725.98;;;;-58
2021/08/11 08:26:50;;;;;;;4.10;2.85;;;;;;;21.30;70.63;100729.97;;;;-58
2021/08/11 08:29:50;;;;;;;3.56;2.77;;;;;;;21.30;70.61;100736.16;;;;-57
2021/08/11 08:32:51;;;;;;;4.15;2.82;;;;;;;21.29;70.61;100742.04;;;;-52
2021/08/11 08:35:50;;;;;;;5.99;3.12;;;;;;;21.30;70.62;100739.75;;;;-52
2021/08/11 08:38:50;;;;;;;6.87;2.97;;;;;;;21.30;70.97;100735.42;;;;-64
2021/08/11 08:41:53;;;;;;;4.90;3.09;;;;;;;21.31;71.00;100732.27;;;;-51
2021/08/11 08:44:50;;;;;;;4.47;2.86;;;;;;;21.32;71.05;100732.58;;;;-51
2021/08/11 08:47:50;;;;;;;8.90;3.01;;;;;;;21.34;70.93;100729.81;;;;-52
2021/08/11 08:50:51;;;;;;;5.43;3.10;;;;;;;21.34;70.82;100731.13;;;;-52
2021/08/11 08:53:50;;;;;;;4.83;2.73;;;;;;;21.34;70.72;100732.34;;;;-51
2021/08/11 08:56:50;;;;;;;6.41;2.93;;;;;;;21.34;70.75;100728.77;;;;-52
2021/08/11 08:59:50;;;;;;;6.49;3.09;;;;;;;21.34;70.76;100728.27;;;;-52
2021/08/11 09:02:50;;;;;;;5.46;2.75;;;;;;;21.33;70.75;100731.94;;;;-52
2021/08/11 09:05:50;;;;;;;4.08;2.90;;;;;;;21.34;70.93;100736.25;;;;-48
2021/08/11 09:08:50;;;;;;;5.41;3.03;;;;;;;21.35;70.96;100735.92;;;;-52
2021/08/11 09:11:50;;;;;;;10.13;3.17;;;;;;;21.36;71.06;100735.52;;;;-52
2021/08/11 09:14:51;;;;;;;6.83;2.83;;;;;;;21.38;70.99;100734.06;;;;-52
2021/08/11 09:17:50;;;;;;;8.80;3.29;;;;;;;21.41;71.00;100734.39;;;;-49
2021/08/11 09:20:50;;;;;;;4.70;2.99;;;;;;;21.42;71.14;100736.80;;;;-52
2021/08/11 09:23:50;;;;;;;5.12;2.82;;;;;;;21.42;71.16;100738.75;;;;-59
2021/08/11 09:26:50;;;;;;;10.31;3.07;;;;;;;21.43;71.01;100738.41;;;;-60
2021/08/11 09:29:50;;;;;;;6.45;2.94;;;;;;;21.43;70.85;100736.88;;;;-52
2021/08/11 09:32:50;;;;;;;6.01;3.11;;;;;;;21.42;70.91;100736.64;;;;-50
2021/08/11 09:35:50;;;;;;;7.61;2.96;;;;;;;21.42;70.84;100732.05;;;;-50
2021/08/11 09:38:50;;;;;;;10.54;3.43;;;;;;;21.41;70.80;100728.84;;;;-51
2021/08/11 09:41:50;;;;;;;4.54;2.90;;;;;;;21.41;70.79;100726.73;;;;-50
2021/08/11 09:44:50;;;;;;;4.83;2.94;;;;;;;21.41;70.82;100726.81;;;;-50
2021/08/11 09:47:50;;;;;;;5.54;2.90;;;;;;;21.40;70.78;100727.72;;;;-62
2021/08/11 09:50:53;;;;;;;8.15;2.99;;;;;;;21.40;70.81;100725.19;;;;-61
2021/08/11 09:53:50;;;;;;;3.97;2.95;;;;;;;21.39;70.68;100727.12;;;;-52
2021/08/11 09:56:50;;;;;;;4.15;2.89;;;;;;;21.39;70.77;100728.75;;;;-52
2021/08/11 09:59:50;;;;;;;4.94;2.99;;;;;;;21.39;70.71;100738.13;;;;-56
2021/08/11 10:02:50;;;;;;;6.26;2.76;;;;;;;21.39;70.69;100738.05;;;;-51
2021/08/11 10:05:52;;;;;;;5.17;2.84;;;;;;;21.38;70.60;100737.82;;;;-61
2021/08/11 10:08:50;;;;;;;3.97;2.80;;;;;;;21.38;70.68;100737.98;;;;-61
2021/08/11 10:11:51;;;;;;;4.53;2.58;;;;;;;21.37;70.66;100738.16;;;;-61
2021/08/11 10:14:50;;;;;;;4.42;2.82;;;;;;;21.37;70.64;100739.27;;;;-61
2021/08/11 10:17:50;;;;;;;3.11;2.57;;;;;;;21.37;70.68;100740.98;;;;-61
2021/08/11 10:20:50;;;;;;;3.53;2.73;;;;;;;21.37;70.66;100739.84;;;;-61
2021/08/11 10:23:50;;;;;;;6.09;2.78;;;;;;;21.36;70.64;100737.32;;;;-60
2021/08/11 10:26:52;;;;;;;7.36;2.67;;;;;;;21.36;70.65;100741.33;;;;-61
2021/08/11 10:29:50;;;;;;;4.07;2.61;;;;;;;21.36;70.64;100737.90;;;;-52
2021/08/11 10:32:50;;;;;;;4.61;2.75;;;;;;;21.35;70.58;100733.55;;;;-52
2021/08/11 10:35:50;;;;;;;3.96;2.85;;;;;;;21.35;70.64;100732.66;;;;-60
2021/08/11 10:38:50;;;;;;;4.06;2.80;;;;;;;21.35;70.61;100734.94;;;;-61
2021/08/11 10:41:50;;;;;;;3.62;2.70;;;;;;;21.34;70.59;100734.63;;;;-54
2021/08/11 10:44:50;;;;;;;4.47;2.77;;;;;;;21.35;70.65;100736.81;;;;-55
2021/08/11 10:47:50;;;;;;;3.65;2.60;;;;;;;21.34;70.59;100732.75;;;;-54
2021/08/11 10:50:50;;;;;;;4.41;2.73;;;;;;;21.34;70.63;100732.27;;;;-55
2021/08/11 10:53:50;;;;;;;4.30;2.55;;;;;;;21.34;70.66;100736.26;;;;-54
2021/08/11 10:56:50;;;;;;;3.58;2.69;;;;;;;21.34;70.62;100735.94;;;;-54
2021/08/11 10:59:50;;;;;;;3.64;2.73;;;;;;;21.33;70.63;100736.64;;;;-62
2021/08/11 11:02:52;;;;;;;3.83;2.69;;;;;;;21.33;70.63;100732.24;;;;-62
2021/08/11 11:05:50;;;;;;;3.41;2.66;;;;;;;21.33;70.61;100725.31;;;;-61
2021/08/11 11:08:51;;;;;;;5.21;2.45;;;;;;;21.33;70.60;100723.03;;;;-61
2021/08/11 11:11:50;;;;;;;4.31;2.69;;;;;;;21.33;70.63;100722.95;;;;-60
2021/08/11 11:14:52;;;;;;;3.52;2.56;;;;;;;21.33;70.59;100715.77;;;;-61
2021/08/11 11:17:50;;;;;;;3.59;2.57;;;;;;;21.33;70.58;100710.64;;;;-61
2021/08/11 11:20:50;;;;;;;4.49;2.68;;;;;;;21.32;70.55;100710.41;;;;-60
2021/08/11 11:23:50;;;;;;;3.44;2.59;;;;;;;21.33;70.67;100706.07;;;;-60
2021/08/11 11:26:50;;;;;;;3.21;2.57;;;;;;;21.34;70.69;100708.95;;;;-63
2021/08/11 11:29:51;;;;;;;3.77;2.62;;;;;;;21.35;70.64;100701.84;;;;-60
2021/08/11 11:32:50;;;;;;;4.73;2.81;;;;;;;21.37;70.78;100697.13;;;;-52
2021/08/11 11:35:50;;;;;;;8.66;2.90;;;;;;;21.36;70.61;100703.66;;;;-52
2021/08/11 11:38:50;;;;;;;5.21;2.61;;;;;;;21.36;70.66;100703.16;;;;-51
2021/08/11 11:41:50;;;;;;;3.88;2.61;;;;;;;21.36;70.61;100706.75;;;;-51
2021/08/11 11:45:50;;;;;;;4.05;2.69;;;;;;;21.35;70.57;100696.38;;;;-52
2021/08/11 11:48:50;;;;;;;3.71;2.52;;;;;;;21.35;70.62;100692.14;;;;-51
2021/08/11 11:51:50;;;;;;;4.83;2.57;;;;;;;21.35;70.58;100689.94;;;;-51
2021/08/11 11:54:50;;;;;;;5.03;2.54;;;;;;;21.34;70.62;100690.03;;;;-51
2021/08/11 11:57:50;;;;;;;4.69;2.57;;;;;;;21.34;70.62;100691.01;;;;-53
2021/08/11 12:00:50;;;;;;;4.52;2.84;;;;;;;21.34;70.66;100692.80;;;;-59
2021/08/11 12:03:53;;;;;;;3.22;2.37;;;;;;;21.34;70.67;100689.80;;;;-59
2021/08/11 12:06:50;;;;;;;3.37;2.43;;;;;;;21.34;70.65;100684.09;;;;-59
2021/08/11 12:09:50;;;;;;;4.01;2.73;;;;;;;21.33;70.66;100688.25;;;;-59
2021/08/11 12:12:50;;;;;;;3.44;2.82;;;;;;;21.33;70.66;100683.00;;;;-50
2021/08/11 12:15:50;;;;;;;5.46;2.40;;;;;;;21.33;70.60;100672.73;;;;-51
2021/08/11 12:18:50;;;;;;;3.61;2.44;;;;;;;21.33;70.68;100670.29;;;;-50
2021/08/11 12:21:50;;;;;;;3.20;2.56;;;;;;;21.32;70.74;100663.77;;;;-54
2021/08/11 12:24:50;;;;;;;2.81;2.50;;;;;;;21.32;70.71;100678.38;;;;-59
2021/08/11 12:27:50;;;;;;;2.64;2.44;;;;;;;21.32;70.69;100690.52;;;;-59
2021/08/11 12:30:50;;;;;;;2.70;2.43;;;;;;;21.32;70.66;100690.84;;;;-60
2021/08/11 12:33:50;;;;;;;3.69;2.60;;;;;;;21.31;70.63;100689.59;;;;-59
2021/08/11 12:36:50;;;;;;;3.42;2.34;;;;;;;21.32;70.67;100688.81;;;;-58
2021/08/11 12:39:50;;;;;;;2.63;2.42;;;;;;;21.31;70.65;100681.55;;;;-60
2021/08/11 12:42:50;;;;;;;3.20;2.59;;;;;;;21.32;70.61;100677.23;;;;-55
2021/08/11 12:45:50;;;;;;;3.23;2.47;;;;;;;21.31;70.63;100674.03;;;;-54
2021/08/11 12:48:50;;;;;;;4.03;2.59;;;;;;;21.30;70.63;100668.91;;;;-51
2021/08/11 12:51:50;;;;;;;2.93;2.32;;;;;;;21.31;70.65;100672.81;;;;-51
2021/08/11 12:54:50;;;;;;;3.02;2.62;;;;;;;21.30;70.60;100673.39;;;;-51
2021/08/11 12:57:50;;;;;;;2.87;2.51;;;;;;;21.30;70.59;100672.00;;;;-60
2021/08/11 13:00:54;;;;;;;2.62;2.41;;;;;;;21.30;70.63;100668.02;;;;-60
2021/08/11 13:03:50;;;;;;;2.86;2.56;;;;;;;21.29;70.61;100665.33;;;;-59
2021/08/11 13:06:50;;;;;;;3.53;2.49;;;;;;;21.30;70.56;100666.46;;;;-51
2021/08/11 13:09:50;;;;;;;2.69;2.36;;;;;;;21.29;70.61;100662.06;;;;-51
2021/08/11 13:12:50;;;;;;;2.66;2.39;;;;;;;21.29;70.63;100660.92;;;;-51
2021/08/11 13:15:50;;;;;;;3.30;2.63;;;;;;;21.29;70.53;100662.06;;;;-52
2021/08/11 13:18:51;;;;;;;2.62;2.39;;;;;;;21.30;70.61;100661.49;;;;-51
2021/08/11 13:21:50;;;;;;;2.90;2.41;;;;;;;21.29;70.61;100654.98;;;;-51
2021/08/11 13:24:50;;;;;;;2.92;2.31;;;;;;;21.29;70.58;100653.59;;;;-51
2021/08/11 13:27:51;;;;;;;2.84;2.21;;;;;;;21.29;70.60;100648.11;;;;-51
2021/08/11 13:30:51;;;;;;;2.90;2.54;;;;;;;21.29;70.54;100647.31;;;;-60
2021/08/11 13:33:50;;;;;;;2.61;2.32;;;;;;;21.28;70.60;100644.61;;;;-60
2021/08/11 13:36:50;;;;;;;3.01;2.37;;;;;;;21.28;70.61;100649.98;;;;-52
2021/08/11 13:39:50;;;;;;;2.72;2.19;;;;;;;21.29;70.55;100654.63;;;;-52
2021/08/11 13:42:51;;;;;;;2.75;2.29;;;;;;;21.28;70.54;100650.56;;;;-52
2021/08/11 13:45:50;;;;;;;3.32;2.45;;;;;;;21.28;70.54;100651.95;;;;-50
2021/08/11 13:48:50;;;;;;;2.59;2.38;;;;;;;21.29;70.55;100654.95;;;;-58
2021/08/11 13:51:53;;;;;;;2.67;2.25;;;;;;;21.28;70.56;100649.66;;;;-60
2021/08/11 13:54:50;;;;;;;2.42;2.17;;;;;;;21.27;70.46;100653.42;;;;-54
2021/08/11 13:57:50;;;;;;;2.82;2.53;;;;;;;21.28;70.56;100647.47;;;;-54
2021/08/11 14:00:50;;;;;;;3.24;2.38;;;;;;;21.28;70.61;100647.47;;;;-50
2021/08/11 14:03:50;;;;;;;2.41;2.21;;;;;;;21.29;70.57;100646.31;;;;-50
2021/08/11 14:06:50;;;;;;;2.82;2.47;;;;;;;21.28;70.54;100644.13;;;;-54
2021/08/11 14:09:50;;;;;;;2.47;2.17;;;;;;;21.28;70.48;100642.91;;;;-54
2021/08/11 14:12:50;;;;;;;2.69;2.40;;;;;;;21.27;70.52;100634.59;;;;-54
2021/08/11 14:15:52;;;;;;;2.43;2.23;;;;;;;21.28;70.53;100631.49;;;;-54
2021/08/11 14:18:50;;;;;;;2.75;2.33;;;;;;;21.28;70.55;100634.66;;;;-59
2021/08/11 14:21:51;;;;;;;2.46;2.26;;;;;;;21.27;70.49;100632.72;;;;-58
2021/08/11 14:24:50;;;;;;;2.55;2.33;;;;;;;21.28;70.50;100630.34;;;;-51
2021/08/11 14:27:50;;;;;;;3.74;2.31;;;;;;;21.28;70.54;100639.56;;;;-50
2021/08/11 14:30:50;;;;;;;2.83;2.51;;;;;;;21.28;70.56;100641.11;;;;-54
2021/08/11 14:33:50;;;;;;;2.65;2.25;;;;;;;21.28;70.47;100639.64;;;;-54
2021/08/11 14:36:50;;;;;;;2.87;2.13;;;;;;;21.27;70.54;100635.00;;;;-54
2021/08/11 14:39:50;;;;;;;2.64;2.07;;;;;;;21.27;70.56;100633.37;;;;-55
2021/08/11 14:42:50;;;;;;;2.90;2.32;;;;;;;21.28;70.47;100637.52;;;;-50
2021/08/11 14:45:50;;;;;;;2.61;2.29;;;;;;;21.28;70.58;100641.35;;;;-51
2021/08/11 14:48:50;;;;;;;2.91;2.39;;;;;;;21.27;70.51;100638.59;;;;-55
2021/08/11 14:51:50;;;;;;;2.52;2.25;;;;;;;21.27;70.49;100649.67;;;;-51
2021/08/11 14:54:50;;;;;;;2.63;2.35;;;;;;;21.27;70.50;100651.14;;;;-50
2021/08/11 14:57:51;;;;;;;2.39;2.19;;;;;;;21.27;70.54;100646.55;;;;-54
2021/08/11 15:00:50;;;;;;;3.05;2.17;;;;;;;21.27;70.50;100643.62;;;;-52
2021/08/11 15:03:50;;;;;;;3.07;2.38;;;;;;;21.27;70.53;100639.73;;;;-51
2021/08/11 15:06:50;;;;;;;2.56;2.36;;;;;;;21.27;70.47;100642.75;;;;-50
2021/08/11 15:09:51;;;;;;;3.13;2.23;;;;;;;21.27;70.52;100639.81;;;;-50
2021/08/11 15:12:55;;;;;;;2.34;2.14;;;;;;;21.28;70.50;100639.97;;;;-50
2021/08/11 15:15:50;;;;;;;2.54;2.33;;;;;;;21.27;70.52;100635.41;;;;-50
2021/08/11 15:18:50;;;;;;;2.46;2.25;;;;;;;21.27;70.55;100633.30;;;;-51
2021/08/11 15:21:50;;;;;;;3.00;2.28;;;;;;;21.28;70.56;100632.63;;;;-60
2021/08/11 15:24:51;;;;;;;3.79;2.36;;;;;;;21.27;70.45;100626.69;;;;-59
2021/08/11 15:27:51;;;;;;;2.97;2.35;;;;;;;21.28;70.53;100624.48;;;;-50
2021/08/11 15:30:50;;;;;;;9.63;2.42;;;;;;;21.27;70.75;100620.22;;;;-51
2021/08/11 15:33:50;;;;;;;3.77;2.06;;;;;;;21.29;71.06;100622.75;;;;-58
2021/08/11 15:36:50;;;;;;;2.71;2.20;;;;;;;21.31;71.02;100630.36;;;;-60
2021/08/11 15:39:50;;;;;;;3.38;2.49;;;;;;;21.33;71.17;100633.20;;;;-60
2021/08/11 15:42:50;;;;;;;3.49;2.47;;;;;;;21.33;70.94;100631.72;;;;-59
2021/08/11 15:45:50;;;;;;;3.88;2.48;;;;;;;21.34;71.50;100629.05;;;;-64
2021/08/11 15:48:50;;;;;;;5.17;2.40;;;;;;;21.36;71.42;100625.95;;;;-57
2021/08/11 15:51:50;;;;;;;5.09;2.49;;;;;;;21.39;71.59;100627.58;;;;-61
2021/08/11 15:54:50;;;;;;;3.51;2.53;;;;;;;21.40;71.70;100622.05;;;;-58
2021/08/11 15:57:51;;;;;;;7.11;2.54;;;;;;;21.43;71.67;100623.71;;;;-60
2021/08/11 16:00:50;;;;;;;4.79;2.35;;;;;;;21.44;71.51;100622.17;;;;-58
2021/08/11 16:03:50;;;;;;;4.86;2.53;;;;;;;21.45;71.40;100624.59;;;;-57
2021/08/11 16:06:50;;;;;;;4.36;2.39;;;;;;;21.46;71.47;100625.59;;;;-54
2021/08/11 16:09:50;;;;;;;3.79;2.45;;;;;;;21.48;71.38;100627.39;;;;-55
2021/08/11 16:12:50;;;;;;;4.15;2.57;;;;;;;21.49;71.61;100627.46;;;;-47
2021/08/11 16:15:50;;;;;;;4.57;2.44;;;;;;;21.50;71.49;100624.52;;;;-48
2021/08/11 16:18:50;;;;;;;3.72;2.29;;;;;;;21.51;71.46;100627.80;;;;-62
2021/08/11 16:21:50;;;;;;;6.47;2.73;;;;;;;21.53;71.59;100627.80;;;;-56
2021/08/11 16:24:50;;;;;;;6.21;2.31;;;;;;;21.54;71.54;100628.11;;;;-65
2021/08/11 16:27:50;;;;;;;4.24;2.10;;;;;;;21.55;71.57;100621.59;;;;-58
2021/08/11 16:30:50;;;;;;;3.41;2.29;;;;;;;21.56;71.70;100619.73;;;;-51
2021/08/11 16:33:50;;;;;;;4.27;2.51;;;;;;;21.57;71.55;100619.14;;;;-51
2021/08/11 16:36:50;;;;;;;6.52;2.40;;;;;;;21.57;71.43;100617.36;;;;-51
2021/08/11 16:39:50;;;;;;;10.83;2.51;;;;;;;21.57;71.36;100620.54;;;;-51
2021/08/11 16:42:50;;;;;;;2.79;2.33;;;;;;;21.57;71.39;100623.31;;;;-51
2021/08/11 16:45:50;;;;;;;3.41;2.45;;;;;;;21.57;71.32;100622.25;;;;-51